Time;durP1;ratioP1;P1;durP2;ratioP2;P2;SDS_P1;SDS_P2;PMS_P1;PMS_P2;Temp;Humidity;BMP_temperature;BMP_pressure;BME280_temperature;BME280_humidity;BME280_pressure;Samples;Min_cycle;Max_cycle;Signal;HPM_P1;HPM_P2
2022/10/29 00:01:24;;;;;;;21.20;13.10;;;13.10;99.90;;;;;;5054745;28;20225;-68
2022/10/29 00:03:51;;;;;;;22.03;13.33;;;13.10;99.90;;;;;;5055238;28;20205;-68
2022/10/29 00:06:18;;;;;;;19.07;13.37;;;13.00;99.90;;;;;;5054971;28;20661;-68
2022/10/29 00:08:45;;;;;;;20.40;13.30;;;13.00;99.90;;;;;;5053901;28;20292;-69
2022/10/29 00:11:14;;;;;;;24.13;14.30;;;13.00;99.90;;;;;;5054621;28;20289;-69
2022/10/29 00:13:43;;;;;;;23.50;14.97;;;12.90;99.90;;;;;;5054552;28;20569;-70
2022/10/29 00:16:11;;;;;;;21.33;14.27;;;12.80;99.90;;;;;;5054195;28;20726;-68
2022/10/29 00:18:39;;;;;;;23.37;14.90;;;12.80;99.90;;;;;;5054460;28;20549;-67
2022/10/29 00:21:08;;;;;;;21.93;13.70;;;12.70;99.90;;;;;;5054032;28;20226;-68
2022/10/29 00:23:35;;;;;;;22.83;14.43;;;12.70;99.90;;;;;;5054451;28;20209;-68
2022/10/29 00:26:03;;;;;;;21.20;13.53;;;12.60;99.90;;;;;;5054169;28;20212;-68
2022/10/29 00:28:30;;;;;;;22.77;15.07;;;12.60;99.90;;;;;;5054000;28;20702;-67
2022/10/29 00:31:02;;;;;;;22.50;14.70;;;12.60;99.90;;;;;;5053940;28;20205;-67
2022/10/29 00:33:28;;;;;;;23.60;14.50;;;12.50;99.90;;;;;;5053858;28;20189;-67
2022/10/29 00:35:56;;;;;;;22.40;14.60;;;12.50;99.90;;;;;;5053554;28;20206;-67
2022/10/29 00:38:23;;;;;;;20.27;14.00;;;12.50;99.90;;;;;;5053798;28;20205;-69
2022/10/29 00:40:50;;;;;;;21.37;14.23;;;12.40;99.90;;;;;;5053626;28;20698;-68
2022/10/29 00:43:20;;;;;;;22.53;14.33;;;12.40;99.90;;;;;;5053568;28;20574;-68
2022/10/29 00:45:51;;;;;;;28.33;16.17;;;12.30;99.90;;;;;;5053317;28;20198;-69
2022/10/29 00:48:20;;;;;;;24.63;15.33;;;12.30;99.90;;;;;;5053158;28;20237;-70
2022/10/29 00:50:48;;;;;;;23.50;15.50;;;12.20;99.90;;;;;;5053284;28;20213;-69
2022/10/29 00:53:19;;;;;;;25.50;15.60;;;12.20;99.90;;;;;;5053080;28;20220;-68
2022/10/29 00:55:46;;;;;;;28.50;14.97;;;12.20;99.90;;;;;;5053033;28;20209;-68
2022/10/29 00:58:13;;;;;;;22.60;14.57;;;12.10;99.90;;;;;;5053710;28;20209;-69
2022/10/29 01:00:40;;;;;;;24.10;14.93;;;12.10;99.90;;;;;;5054125;28;20201;-68
2022/10/29 01:03:07;;;;;;;21.20;14.87;;;12.10;99.90;;;;;;5053504;28;20227;-69
2022/10/29 01:05:36;;;;;;;24.00;16.13;;;12.00;99.90;;;;;;5053371;28;20232;-69
2022/10/29 01:08:04;;;;;;;23.80;14.97;;;12.00;99.90;;;;;;5053474;28;20213;-68
2022/10/29 01:10:40;;;;;;;24.37;14.67;;;12.00;99.90;;;;;;5053931;28;20297;-68
2022/10/29 01:13:22;;;;;;;24.57;14.70;;;11.90;99.90;;;;;;5053509;28;20192;-67
2022/10/29 01:15:58;;;;;;;24.57;14.80;;;11.90;99.90;;;;;;5041586;28;20212;-67
2022/10/29 01:18:35;;;;;;;25.03;14.80;;;11.80;99.90;;;;;;5043673;28;20221;-69
2022/10/29 01:21:32;;;;;;;21.93;14.97;;;11.80;99.90;;;;;;5053015;28;20573;-69
2022/10/29 01:24:34;;;;;;;28.47;15.27;;;11.80;99.90;;;;;;5053066;28;20713;-68
2022/10/29 01:27:37;;;;;;;23.43;15.30;;;11.80;99.90;;;;;;5033264;28;20193;-67
2022/10/29 01:30:21;;;;;;;26.27;15.20;;;11.70;99.90;;;;;;5032958;28;20190;-69
2022/10/29 01:33:04;;;;;;;23.20;14.77;;;11.70;99.90;;;;;;5031832;28;20201;-68
2022/10/29 01:35:40;;;;;;;26.20;15.17;;;11.70;99.90;;;;;;5032539;28;20277;-67
2022/10/29 01:38:14;;;;;;;26.50;15.73;;;11.60;99.90;;;;;;5060756;28;20203;-66
2022/10/29 01:40:49;;;;;;;24.10;14.80;;;11.60;99.90;;;;;;5052188;28;20186;-66
2022/10/29 01:43:22;;;;;;;24.20;14.50;;;11.50;99.90;;;;;;5052167;28;20189;-67
2022/10/29 01:45:54;;;;;;;23.30;15.07;;;11.50;99.90;;;;;;5052378;28;20546;-66
2022/10/29 01:48:29;;;;;;;22.53;14.57;;;11.50;99.90;;;;;;5052120;28;20237;-67
2022/10/29 01:51:00;;;;;;;24.87;15.80;;;11.40;99.90;;;;;;5052357;28;21048;-67
2022/10/29 01:53:29;;;;;;;24.97;15.07;;;11.40;99.90;;;;;;5052554;28;20241;-68
2022/10/29 01:55:56;;;;;;;23.33;14.93;;;11.40;99.90;;;;;;5051643;28;20221;-67
2022/10/29 01:58:24;;;;;;;27.13;15.83;;;11.40;99.90;;;;;;5052110;28;20215;-67
2022/10/29 02:01:01;;;;;;;25.47;15.80;;;11.40;99.90;;;;;;5051620;28;20240;-67
2022/10/29 02:03:38;;;;;;;22.73;16.00;;;11.30;99.90;;;;;;5052480;28;20194;-67
2022/10/29 02:06:13;;;;;;;25.97;15.73;;;11.30;99.90;;;;;;5052200;28;20189;-68
2022/10/29 02:08:51;;;;;;;22.00;14.87;;;11.20;99.90;;;;;;5052232;28;20195;-67
2022/10/29 02:11:23;;;;;;;22.60;14.97;;;11.30;99.90;;;;;;5052305;28;20195;-68
2022/10/29 02:13:57;;;;;;;23.73;15.73;;;11.20;99.90;;;;;;5060468;28;20566;-67
2022/10/29 02:16:26;;;;;;;25.57;15.90;;;11.20;99.90;;;;;;5072131;28;20189;-67
2022/10/29 02:18:56;;;;;;;26.20;15.97;;;11.20;99.90;;;;;;5072146;28;20535;-67
2022/10/29 02:21:22;;;;;;;22.17;15.10;;;11.20;99.90;;;;;;5072076;28;20302;-67
2022/10/29 02:23:50;;;;;;;25.33;15.83;;;11.20;99.90;;;;;;5071944;28;20224;-68
2022/10/29 02:26:17;;;;;;;26.60;16.10;;;11.10;99.90;;;;;;5072157;28;20576;-68
2022/10/29 02:28:43;;;;;;;24.67;16.60;;;11.10;99.90;;;;;;5072064;28;20208;-68
2022/10/29 02:31:10;;;;;;;23.90;16.07;;;11.10;99.90;;;;;;5052020;28;20209;-67
2022/10/29 02:33:37;;;;;;;23.20;15.23;;;11.10;99.90;;;;;;5051541;28;20221;-68
2022/10/29 02:36:06;;;;;;;25.33;15.70;;;11.10;99.90;;;;;;5052140;28;20208;-69
2022/10/29 02:38:33;;;;;;;25.03;15.90;;;11.00;99.90;;;;;;5051942;28;20205;-68
2022/10/29 02:41:00;;;;;;;23.37;15.57;;;11.00;99.90;;;;;;5051967;28;20308;-68
2022/10/29 02:43:26;;;;;;;22.30;15.33;;;11.00;99.90;;;;;;5051557;28;20215;-67
2022/10/29 02:46:15;;;;;;;23.63;15.83;;;11.00;99.90;;;;;;5051370;28;20206;-69
2022/10/29 02:48:42;;;;;;;23.93;15.13;;;11.00;99.90;;;;;;5031761;28;20234;-68
2022/10/29 02:51:10;;;;;;;26.43;16.40;;;11.00;99.90;;;;;;5032712;28;20210;-69
2022/10/29 02:53:37;;;;;;;23.80;15.67;;;10.90;99.90;;;;;;5040188;28;20205;-68
2022/10/29 02:56:06;;;;;;;24.73;16.17;;;10.90;99.90;;;;;;5049486;28;20198;-68
2022/10/29 02:58:32;;;;;;;23.80;16.10;;;10.90;99.90;;;;;;5042473;28;20560;-67
2022/10/29 03:01:00;;;;;;;27.13;16.23;;;10.90;99.90;;;;;;5054761;28;20659;-69
2022/10/29 03:03:26;;;;;;;25.57;15.63;;;10.90;99.90;;;;;;5055748;28;20621;-68
2022/10/29 03:05:53;;;;;;;23.73;16.03;;;10.90;99.90;;;;;;5054563;28;20607;-69
2022/10/29 03:08:22;;;;;;;25.87;15.87;;;10.90;99.90;;;;;;5055363;28;20202;-68
2022/10/29 03:10:48;;;;;;;25.57;16.40;;;10.90;99.90;;;;;;5055080;28;20217;-68
2022/10/29 03:13:16;;;;;;;23.00;15.47;;;10.80;99.90;;;;;;5055777;28;20558;-68
2022/10/29 03:15:44;;;;;;;25.73;17.07;;;10.80;99.90;;;;;;5054048;28;20202;-68
2022/10/29 03:18:11;;;;;;;26.67;16.40;;;10.80;99.90;;;;;;5055474;28;20578;-67
2022/10/29 03:20:38;;;;;;;23.80;15.93;;;10.80;99.90;;;;;;5054855;28;20209;-68
2022/10/29 03:23:05;;;;;;;24.93;15.90;;;10.80;99.90;;;;;;5055328;28;20237;-68
2022/10/29 03:25:33;;;;;;;24.23;16.13;;;10.80;99.90;;;;;;5053168;28;20201;-67
2022/10/29 03:28:00;;;;;;;24.40;15.50;;;10.70;99.90;;;;;;5055272;28;20208;-69
2022/10/29 03:30:27;;;;;;;23.17;16.03;;;10.70;99.90;;;;;;5054949;28;20209;-68
2022/10/29 03:32:53;;;;;;;30.30;15.77;;;10.60;99.90;;;;;;5054999;28;20655;-68
2022/10/29 03:35:20;;;;;;;28.87;17.50;;;10.60;99.90;;;;;;5053955;28;20216;-66
2022/10/29 03:37:49;;;;;;;24.80;15.97;;;10.60;99.90;;;;;;5054768;28;20211;-68
2022/10/29 03:40:17;;;;;;;26.63;17.10;;;10.60;99.90;;;;;;5054880;28;20571;-67
2022/10/29 03:42:45;;;;;;;27.77;17.00;;;10.60;99.90;;;;;;5053230;28;20232;-68
2022/10/29 03:45:12;;;;;;;33.40;22.13;;;10.60;99.90;;;;;;5054769;28;20205;-68
2022/10/29 03:47:39;;;;;;;41.27;24.53;;;10.50;99.90;;;;;;5054115;28;20238;-67
2022/10/29 03:50:07;;;;;;;26.27;17.87;;;10.50;99.90;;;;;;5054529;28;20724;-67
2022/10/29 03:52:34;;;;;;;27.60;17.00;;;10.50;99.90;;;;;;5053754;28;20223;-68
2022/10/29 03:55:01;;;;;;;30.13;17.53;;;10.50;99.90;;;;;;5055078;28;20212;-69
2022/10/29 03:57:28;;;;;;;26.67;17.67;;;10.40;99.90;;;;;;5055244;28;20563;-69
2022/10/29 03:59:56;;;;;;;23.37;16.50;;;10.40;99.90;;;;;;5055415;28;20208;-68
2022/10/29 04:02:23;;;;;;;26.57;17.47;;;10.40;99.90;;;;;;5053083;28;20581;-68
2022/10/29 04:04:49;;;;;;;29.40;16.87;;;10.40;99.90;;;;;;5054836;28;20841;-69
2022/10/29 04:07:16;;;;;;;28.20;17.40;;;10.40;99.90;;;;;;5055007;28;20201;-68
2022/10/29 04:09:43;;;;;;;26.80;17.43;;;10.40;99.90;;;;;;5054617;28;20213;-67
2022/10/29 04:12:10;;;;;;;24.20;16.90;;;10.40;99.90;;;;;;5053490;28;20570;-67
2022/10/29 04:14:36;;;;;;;25.87;16.90;;;10.30;99.90;;;;;;5053861;28;20662;-69
2022/10/29 04:17:05;;;;;;;23.27;15.80;;;10.30;99.90;;;;;;5054729;28;20217;-70
2022/10/29 04:19:31;;;;;;;25.87;16.93;;;10.30;99.90;;;;;;5054211;28;20213;-68
2022/10/29 04:21:58;;;;;;;27.07;17.00;;;10.30;99.90;;;;;;5053599;28;20228;-68
2022/10/29 04:24:25;;;;;;;28.67;17.23;;;10.20;99.90;;;;;;5053155;28;20201;-68
2022/10/29 04:26:52;;;;;;;28.03;17.93;;;10.20;99.90;;;;;;5051168;28;20232;-68
2022/10/29 04:29:18;;;;;;;26.67;17.27;;;10.20;99.90;;;;;;5053389;28;20663;-68
2022/10/29 04:31:45;;;;;;;33.23;19.07;;;10.20;99.90;;;;;;5054207;28;20208;-68
2022/10/29 04:34:13;;;;;;;26.90;17.70;;;10.10;99.90;;;;;;5053493;28;20236;-68
2022/10/29 04:36:40;;;;;;;27.60;17.37;;;10.10;99.90;;;;;;5052105;28;20205;-68
2022/10/29 04:39:07;;;;;;;25.70;18.30;;;10.10;99.90;;;;;;5067091;28;20224;-69
2022/10/29 04:41:34;;;;;;;26.03;17.83;;;10.10;99.90;;;;;;5074074;28;20204;-70
2022/10/29 04:44:01;;;;;;;26.50;17.27;;;10.10;99.90;;;;;;5033908;28;20230;-68
2022/10/29 04:46:28;;;;;;;25.53;16.83;;;10.00;99.90;;;;;;5046892;28;20216;-67
2022/10/29 04:48:54;;;;;;;28.87;17.63;;;10.00;99.90;;;;;;5054021;28;20563;-68
2022/10/29 04:51:24;;;;;;;27.47;18.07;;;10.00;99.90;;;;;;5053985;28;20227;-69
2022/10/29 04:53:51;;;;;;;32.20;18.17;;;10.00;99.90;;;;;;5054267;28;20558;-68
2022/10/29 04:56:18;;;;;;;28.80;17.87;;;10.00;99.90;;;;;;5073609;28;20207;-70
2022/10/29 04:58:45;;;;;;;28.13;17.80;;;9.90;99.90;;;;;;5073427;28;20310;-72
2022/10/29 05:01:11;;;;;;;28.83;18.20;;;9.90;99.90;;;;;;5073102;28;20205;-69
2022/10/29 05:03:38;;;;;;;27.60;18.30;;;9.90;99.90;;;;;;5058338;28;20648;-69
2022/10/29 05:06:06;;;;;;;30.77;18.00;;;9.90;99.90;;;;;;5053593;28;20202;-68
2022/10/29 05:08:34;;;;;;;27.07;17.63;;;9.90;99.90;;;;;;5053311;28;20204;-70
2022/10/29 05:11:02;;;;;;;28.20;17.77;;;9.90;99.90;;;;;;5053482;28;20235;-69
2022/10/29 05:13:30;;;;;;;41.83;27.60;;;9.90;99.90;;;;;;5052374;28;20275;-69
2022/10/29 05:15:57;;;;;;;27.67;18.60;;;9.90;99.90;;;;;;5053673;28;20206;-70
2022/10/29 05:18:24;;;;;;;28.67;18.87;;;9.90;99.90;;;;;;5051201;28;20293;-71
2022/10/29 05:20:53;;;;;;;26.57;18.17;;;9.90;99.90;;;;;;5053436;28;20279;-70
2022/10/29 05:23:20;;;;;;;27.10;18.17;;;9.90;99.90;;;;;;5053379;28;20275;-71
2022/10/29 05:25:50;;;;;;;28.40;18.13;;;9.90;99.90;;;;;;5053280;28;20243;-69
2022/10/29 05:28:18;;;;;;;27.67;17.60;;;9.90;99.90;;;;;;5053007;28;20201;-71
2022/10/29 05:30:46;;;;;;;28.20;18.40;;;9.90;99.90;;;;;;5052940;28;20209;-70
2022/10/29 05:33:15;;;;;;;28.80;19.27;;;9.90;99.90;;;;;;5052923;28;20548;-69
2022/10/29 05:35:43;;;;;;;28.97;19.80;;;9.80;99.90;;;;;;5052945;28;20205;-69
2022/10/29 05:38:10;;;;;;;31.77;19.97;;;9.90;99.90;;;;;;5052934;28;20206;-68
2022/10/29 05:40:38;;;;;;;29.23;18.93;;;9.90;99.90;;;;;;5052956;28;20683;-69
2022/10/29 05:43:06;;;;;;;31.00;19.00;;;9.90;99.90;;;;;;5052526;28;20231;-67
2022/10/29 05:45:33;;;;;;;35.50;19.30;;;9.90;99.90;;;;;;5052920;28;20227;-69
2022/10/29 05:48:01;;;;;;;32.73;20.13;;;9.90;99.90;;;;;;5052435;28;20233;-71
2022/10/29 05:50:31;;;;;;;29.93;19.00;;;10.00;99.90;;;;;;5052445;28;20608;-73
2022/10/29 05:53:00;;;;;;;28.90;18.70;;;10.00;99.90;;;;;;5052741;28;20196;-68
2022/10/29 05:55:27;;;;;;;27.33;19.33;;;10.00;99.90;;;;;;5052554;28;20563;-69
2022/10/29 05:57:56;;;;;;;30.83;19.20;;;10.10;99.90;;;;;;5052870;28;20650;-69
2022/10/29 06:00:25;;;;;;;26.53;17.90;;;10.20;99.90;;;;;;5049790;28;20274;-68
2022/10/29 06:02:52;;;;;;;26.47;17.30;;;10.20;99.90;;;;;;5051731;28;20221;-69
2022/10/29 06:05:19;;;;;;;30.93;18.87;;;10.30;99.90;;;;;;5051927;28;20314;-68
2022/10/29 06:07:45;;;;;;;27.33;17.20;;;10.40;99.90;;;;;;5052229;28;20201;-67
2022/10/29 06:10:12;;;;;;;28.93;16.90;;;10.40;99.90;;;;;;5050759;28;20651;-67
2022/10/29 06:12:39;;;;;;;27.73;17.23;;;10.50;99.90;;;;;;5052126;28;20650;-67
2022/10/29 06:15:07;;;;;;;27.23;18.13;;;10.50;99.90;;;;;;5051913;28;20300;-67
2022/10/29 06:17:40;;;;;;;29.87;18.57;;;10.60;99.90;;;;;;5051923;28;20571;-68
2022/10/29 06:20:08;;;;;;;28.10;17.50;;;10.70;99.90;;;;;;5050556;28;20205;-67
2022/10/29 06:22:35;;;;;;;24.53;16.10;;;10.70;99.90;;;;;;5051355;28;20612;-68
2022/10/29 06:25:02;;;;;;;26.70;17.43;;;10.80;99.90;;;;;;5051746;28;20205;-67
2022/10/29 06:27:29;;;;;;;28.07;17.00;;;10.80;99.90;;;;;;5051414;28;20217;-69
2022/10/29 06:29:56;;;;;;;29.67;18.17;;;10.90;99.90;;;;;;5050776;28;20209;-67
2022/10/29 06:32:23;;;;;;;29.37;18.47;;;10.90;99.90;;;;;;5051620;28;20212;-68
2022/10/29 06:34:51;;;;;;;29.37;16.83;;;11.00;99.90;;;;;;5051891;28;20205;-66
2022/10/29 06:37:17;;;;;;;29.67;17.87;;;11.00;99.90;;;;;;5051667;28;20209;-68
2022/10/29 06:39:44;;;;;;;26.80;16.90;;;11.10;99.90;;;;;;5050725;28;20208;-68
2022/10/29 06:42:11;;;;;;;29.00;17.40;;;11.10;99.90;;;;;;5051745;28;20197;-67
2022/10/29 06:44:38;;;;;;;25.73;17.10;;;11.10;99.90;;;;;;5050731;28;20324;-67
2022/10/29 06:47:04;;;;;;;26.17;16.27;;;11.20;99.90;;;;;;5051577;28;20597;-68
2022/10/29 06:49:31;;;;;;;27.57;17.53;;;11.20;99.90;;;;;;5050427;28;20216;-70
2022/10/29 06:51:59;;;;;;;26.10;16.50;;;11.30;99.90;;;;;;5051422;28;20243;-68
2022/10/29 06:54:26;;;;;;;26.07;16.77;;;11.30;99.90;;;;;;5049846;28;20203;-67
2022/10/29 06:56:53;;;;;;;26.97;16.83;;;11.30;99.90;;;;;;5051552;28;20608;-67
2022/10/29 06:59:22;;;;;;;25.73;17.43;;;11.40;99.90;;;;;;5051093;28;20218;-67
2022/10/29 07:01:49;;;;;;;29.47;17.90;;;11.50;99.90;;;;;;5051617;28;20678;-69
2022/10/29 07:04:17;;;;;;;32.37;19.70;;;11.50;99.90;;;;;;5048376;28;20230;-68
2022/10/29 07:06:43;;;;;;;29.40;17.70;;;11.60;99.90;;;;;;5048027;28;20555;-66
2022/10/29 07:09:12;;;;;;;28.77;17.83;;;11.70;99.90;;;;;;5050269;28;20537;-70
2022/10/29 07:11:39;;;;;;;27.30;17.13;;;11.70;99.90;;;;;;5050049;28;20229;-68
2022/10/29 07:14:07;;;;;;;28.07;18.10;;;11.80;99.90;;;;;;5049058;28;20529;-67
2022/10/29 07:16:34;;;;;;;31.07;18.33;;;11.90;99.90;;;;;;5049036;28;20259;-68
2022/10/29 07:19:00;;;;;;;31.50;18.07;;;12.00;99.90;;;;;;5048348;28;20197;-66
2022/10/29 07:21:27;;;;;;;26.40;16.23;;;12.00;99.90;;;;;;5049897;28;20232;-67
2022/10/29 07:23:54;;;;;;;25.80;16.30;;;12.10;99.90;;;;;;5049599;28;20572;-67
2022/10/29 07:26:22;;;;;;;28.57;16.00;;;12.20;99.90;;;;;;5049919;28;20667;-67
2022/10/29 07:28:49;;;;;;;27.23;15.60;;;12.20;99.90;;;;;;5051144;28;20225;-68
2022/10/29 07:31:16;;;;;;;26.30;15.93;;;12.30;99.90;;;;;;5048482;28;20296;-67
2022/10/29 07:33:42;;;;;;;26.23;15.33;;;12.30;99.90;;;;;;5048986;28;20201;-67
2022/10/29 07:36:09;;;;;;;27.47;15.43;;;12.40;99.90;;;;;;5050546;28;20234;-69
2022/10/29 07:38:36;;;;;;;29.83;16.33;;;12.40;99.90;;;;;;5051575;28;20216;-68
2022/10/29 07:41:03;;;;;;;28.67;16.63;;;12.40;99.90;;;;;;5064866;28;20220;-67
2022/10/29 07:43:31;;;;;;;30.60;16.20;;;12.50;99.90;;;;;;5049966;28;20231;-68
2022/10/29 07:45:57;;;;;;;21.93;14.30;;;12.50;99.90;;;;;;5053110;28;20746;-67
2022/10/29 07:48:24;;;;;;;22.10;14.27;;;12.50;99.90;;;;;;5054006;28;20236;-69
2022/10/29 07:50:51;;;;;;;22.33;14.00;;;12.60;99.90;;;;;;5051643;28;20202;-70
2022/10/29 07:53:18;;;;;;;26.17;15.43;;;12.60;99.90;;;;;;5053774;28;20193;-69
2022/10/29 07:55:51;;;;;;;24.77;15.63;;;12.70;99.90;;;;;;5074122;28;20208;-67
2022/10/29 07:58:18;;;;;;;24.63;15.40;;;12.70;99.90;;;;;;5058478;28;20208;-67
2022/10/29 08:00:46;;;;;;;24.90;14.50;;;12.80;99.90;;;;;;5054122;28;20202;-69
2022/10/29 08:03:13;;;;;;;25.40;14.93;;;12.80;99.90;;;;;;5053055;28;20225;-66
2022/10/29 08:05:41;;;;;;;23.50;14.20;;;12.80;99.90;;;;;;5052755;28;20201;-67
2022/10/29 08:08:08;;;;;;;26.00;14.77;;;12.90;99.90;;;;;;5051980;28;20205;-67
2022/10/29 08:10:35;;;;;;;24.03;15.03;;;13.00;99.90;;;;;;5053213;28;20205;-67
2022/10/29 08:13:05;;;;;;;25.90;15.20;;;13.00;99.90;;;;;;5053752;28;20212;-66
2022/10/29 08:15:33;;;;;;;23.37;14.43;;;13.10;99.90;;;;;;5052866;28;20206;-67
2022/10/29 08:18:02;;;;;;;23.13;13.17;;;13.20;99.90;;;;;;5051253;28;20244;-66
2022/10/29 08:20:29;;;;;;;23.40;13.67;;;13.30;99.90;;;;;;5053978;28;20205;-68
2022/10/29 08:22:59;;;;;;;20.10;13.00;;;13.40;99.90;;;;;;5053488;28;20566;-68
2022/10/29 08:25:26;;;;;;;21.87;13.10;;;13.50;99.90;;;;;;5052739;28;20208;-66
2022/10/29 08:28:00;;;;;;;20.13;13.17;;;13.60;99.90;;;;;;5052304;28;20235;-66
2022/10/29 08:30:27;;;;;;;20.57;13.43;;;13.70;99.90;;;;;;5053316;28;20208;-66
2022/10/29 08:32:53;;;;;;;25.27;13.53;;;13.80;99.90;;;;;;5051785;28;20209;-66
2022/10/29 08:35:22;;;;;;;19.27;13.13;;;13.90;99.90;;;;;;5051907;28;20592;-66
2022/10/29 08:37:48;;;;;;;22.50;12.63;;;13.90;99.90;;;;;;5053389;28;20201;-67
2022/10/29 08:40:27;;;;;;;19.87;12.27;;;14.00;99.90;;;;;;5050618;28;20231;-69
2022/10/29 08:43:15;;;;;;;17.97;12.13;;;14.10;99.90;;;;;;5052723;28;20280;-67
2022/10/29 08:45:47;;;;;;;22.57;12.87;;;14.10;99.90;;;;;;5054817;28;20186;-66
2022/10/29 08:48:28;;;;;;;19.20;12.03;;;14.30;99.90;;;;;;5044707;28;20291;-67
2022/10/29 08:51:03;;;;;;;19.80;11.57;;;14.30;99.90;;;;;;5050442;28;20210;-67
2022/10/29 08:53:36;;;;;;;16.70;10.90;;;14.40;99.90;;;;;;5050084;28;20194;-67
2022/10/29 08:56:05;;;;;;;17.27;10.60;;;14.60;99.90;;;;;;5053103;28;20207;-67
2022/10/29 08:58:37;;;;;;;16.83;11.07;;;14.70;99.90;;;;;;5050686;28;20209;-67
2022/10/29 09:01:10;;;;;;;17.40;11.23;;;14.80;99.90;;;;;;5047583;28;20243;-67
2022/10/29 09:03:37;;;;;;;17.13;10.57;;;14.90;99.90;;;;;;5032758;28;20490;-67
2022/10/29 09:06:11;;;;;;;20.90;11.40;;;15.00;99.90;;;;;;5032643;28;20205;-67
2022/10/29 09:08:49;;;;;;;16.10;10.33;;;15.00;99.90;;;;;;5033128;28;20253;-69
2022/10/29 09:11:32;;;;;;;17.47;10.90;;;15.10;99.90;;;;;;5033527;28;20637;-66
2022/10/29 09:14:10;;;;;;;18.57;10.63;;;15.20;99.90;;;;;;5033209;28;20202;-69
2022/10/29 09:16:44;;;;;;;17.33;10.10;;;15.30;99.90;;;;;;5033007;28;20192;-66
2022/10/29 09:19:51;;;;;;;17.03;10.13;;;15.40;99.90;;;;;;5033045;28;20197;-67
2022/10/29 09:22:29;;;;;;;17.90;10.70;;;15.50;99.90;;;;;;5033098;28;20212;-68
2022/10/29 09:25:06;;;;;;;17.23;11.03;;;15.60;99.90;;;;;;5033107;28;20577;-68
2022/10/29 09:27:46;;;;;;;17.97;10.37;;;15.70;99.90;;;;;;5032945;28;20190;-69
2022/10/29 09:30:16;;;;;;;18.10;10.70;;;15.70;99.90;;;;;;5033305;28;20203;-66
2022/10/29 09:32:46;;;;;;;16.17;10.30;;;15.80;99.90;;;;;;5033067;28;20208;-66
2022/10/29 09:35:14;;;;;;;17.50;9.77;;;15.80;99.90;;;;;;5035419;28;20195;-68
2022/10/29 09:37:49;;;;;;;15.13;9.20;;;15.80;99.90;;;;;;5050609;28;20214;-68
2022/10/29 09:40:27;;;;;;;18.33;10.17;;;15.90;99.90;;;;;;5058696;28;20220;-66
2022/10/29 09:42:55;;;;;;;18.27;10.40;;;16.00;99.90;;;;;;5064314;28;20207;-66
2022/10/29 09:45:36;;;;;;;15.73;9.23;;;16.10;99.90;;;;;;5050885;28;20235;-66
2022/10/29 09:48:10;;;;;;;14.60;9.37;;;16.20;99.90;;;;;;5046849;28;20243;-68
2022/10/29 09:50:48;;;;;;;15.10;9.47;;;16.30;99.90;;;;;;5049646;28;20195;-67
2022/10/29 09:53:17;;;;;;;15.83;9.50;;;16.40;99.90;;;;;;5051074;28;20912;-67
2022/10/29 09:55:52;;;;;;;16.60;9.27;;;16.50;99.90;;;;;;5049464;28;20213;-67
2022/10/29 09:58:21;;;;;;;18.63;9.73;;;16.50;99.90;;;;;;5047998;28;20259;-66
2022/10/29 10:00:48;;;;;;;15.30;10.57;;;16.60;99.90;;;;;;5031450;28;20515;-66
2022/10/29 10:03:21;;;;;;;16.87;9.93;;;16.70;99.90;;;;;;5032208;28;20286;-67
2022/10/29 10:06:00;;;;;;;15.20;9.07;;;16.70;99.90;;;;;;5031822;28;20187;-67
2022/10/29 10:08:29;;;;;;;16.73;9.93;;;16.80;99.90;;;;;;5032063;28;20290;-66
2022/10/29 10:10:58;;;;;;;15.77;9.50;;;16.80;99.90;;;;;;5031619;28;20213;-67
2022/10/29 10:13:27;;;;;;;16.33;9.20;;;16.90;99.90;;;;;;5031812;28;20233;-67
2022/10/29 10:15:57;;;;;;;13.43;8.47;;;17.00;99.90;;;;;;5031821;28;20215;-67
2022/10/29 10:18:25;;;;;;;12.60;8.33;;;17.00;99.90;;;;;;5031712;28;20210;-67
2022/10/29 10:21:04;;;;;;;13.23;9.07;;;17.10;99.90;;;;;;5031916;28;20543;-69
2022/10/29 10:23:41;;;;;;;15.07;9.70;;;17.10;99.90;;;;;;5031630;28;20538;-67
2022/10/29 10:26:31;;;;;;;17.17;9.50;;;17.10;99.90;;;;;;5032003;28;20191;-67
2022/10/29 10:29:10;;;;;;;18.43;9.73;;;17.20;99.90;;;;;;5031867;28;20622;-67
2022/10/29 10:31:38;;;;;;;14.13;8.93;;;17.20;99.90;;;;;;5031508;28;20194;-67
2022/10/29 10:34:10;;;;;;;16.93;9.03;;;17.10;99.90;;;;;;5031461;28;20213;-67
2022/10/29 10:36:40;;;;;;;15.30;9.17;;;17.20;99.90;;;;;;5031687;28;20194;-68
2022/10/29 10:39:23;;;;;;;17.47;9.13;;;17.20;99.90;;;;;;5031660;28;20332;-66
2022/10/29 10:41:51;;;;;;;15.10;8.67;;;17.30;99.90;;;;;;5031617;28;20197;-68
2022/10/29 10:44:19;;;;;;;12.80;8.00;;;17.30;99.90;;;;;;5031506;28;20720;-67
2022/10/29 10:46:46;;;;;;;11.10;7.87;;;17.30;99.90;;;;;;5030969;28;20247;-68
2022/10/29 10:49:16;;;;;;;13.47;7.93;;;17.30;99.90;;;;;;5031686;28;20198;-66
2022/10/29 10:51:45;;;;;;;12.27;7.67;;;17.30;99.90;;;;;;5032161;28;20215;-69
2022/10/29 10:54:31;;;;;;;15.67;9.27;;;17.30;99.90;;;;;;5031849;28;20211;-69
2022/10/29 10:57:00;;;;;;;14.07;8.70;;;17.40;99.90;;;;;;5031530;28;20271;-67
2022/10/29 10:59:36;;;;;;;26.17;16.43;;;17.40;99.90;;;;;;5031373;28;20211;-69
2022/10/29 11:02:06;;;;;;;13.73;8.40;;;17.40;99.90;;;;;;5031252;28;20198;-67
2022/10/29 11:04:37;;;;;;;16.77;8.50;;;17.30;99.90;;;;;;5031090;28;20243;-67
2022/10/29 11:07:07;;;;;;;16.37;8.67;;;17.30;99.90;;;;;;5031085;28;20199;-71
2022/10/29 11:09:39;;;;;;;13.03;8.70;;;17.30;99.90;;;;;;5030998;28;20193;-69
2022/10/29 11:12:12;;;;;;;14.17;7.63;;;17.40;99.90;;;;;;5032592;28;20636;-68
2022/10/29 11:14:48;;;;;;;16.57;8.63;;;17.40;99.90;;;;;;5035206;28;20218;-68
2022/10/29 11:17:26;;;;;;;11.80;8.10;;;17.40;99.90;;;;;;5035102;28;20190;-68
2022/10/29 11:19:56;;;;;;;14.27;8.13;;;17.40;99.90;;;;;;5035314;28;20195;-67
2022/10/29 11:22:29;;;;;;;15.30;8.47;;;17.50;99.90;;;;;;5035159;28;20212;-68
2022/10/29 11:25:04;;;;;;;14.13;8.20;;;17.50;99.90;;;;;;5035154;28;20216;-68
2022/10/29 11:27:40;;;;;;;13.10;8.73;;;17.50;99.90;;;;;;5035067;28;20281;-66
2022/10/29 11:30:11;;;;;;;15.13;8.70;;;17.50;99.90;;;;;;5035068;28;20196;-69
2022/10/29 11:32:56;;;;;;;15.80;8.27;;;17.50;99.90;;;;;;5034929;28;20199;-68
2022/10/29 11:35:36;;;;;;;15.67;7.93;;;17.50;99.90;;;;;;5034905;28;20215;-67
2022/10/29 11:38:10;;;;;;;11.00;7.63;;;17.60;99.90;;;;;;5034743;28;20202;-67
2022/10/29 11:40:47;;;;;;;14.23;7.60;;;17.60;99.90;;;;;;5034923;28;20549;-68
2022/10/29 11:43:17;;;;;;;13.10;7.83;;;17.60;99.90;;;;;;5035110;28;20234;-67
2022/10/29 11:45:55;;;;;;;14.93;8.03;;;17.60;99.90;;;;;;5034512;28;20222;-68
2022/10/29 11:48:33;;;;;;;12.77;7.83;;;17.60;99.90;;;;;;5034366;28;20432;-67
2022/10/29 11:51:06;;;;;;;14.70;8.27;;;17.70;99.90;;;;;;5034145;28;20203;-67
2022/10/29 11:53:53;;;;;;;11.60;7.33;;;17.70;99.90;;;;;;5033702;28;20297;-67
2022/10/29 11:56:27;;;;;;;10.57;7.97;;;17.70;99.90;;;;;;5034245;28;20186;-67
2022/10/29 11:59:00;;;;;;;14.30;7.73;;;17.80;99.90;;;;;;5034262;28;20189;-66
2022/10/29 12:01:36;;;;;;;12.67;8.33;;;17.80;99.90;;;;;;5033981;28;20194;-66
2022/10/29 12:04:21;;;;;;;15.33;8.87;;;17.80;99.90;;;;;;5033851;28;20589;-68
2022/10/29 12:06:59;;;;;;;15.37;8.23;;;17.90;99.90;;;;;;5033852;28;20190;-67
2022/10/29 12:09:45;;;;;;;18.37;9.83;;;17.90;99.90;;;;;;5034408;28;20233;-68
2022/10/29 12:12:18;;;;;;;12.50;8.07;;;17.90;99.90;;;;;;5034045;28;20205;-69
2022/10/29 12:14:51;;;;;;;17.70;8.37;;;17.90;99.90;;;;;;5034359;28;20570;-68
2022/10/29 12:17:24;;;;;;;13.87;7.73;;;18.00;99.90;;;;;;5034385;28;20544;-68
2022/10/29 12:19:58;;;;;;;13.17;6.97;;;18.00;99.90;;;;;;5033637;28;20193;-66
2022/10/29 12:22:38;;;;;;;11.70;8.40;;;18.00;99.90;;;;;;5033453;28;20553;-67
2022/10/29 12:25:21;;;;;;;21.43;7.87;;;18.10;99.90;;;;;;5033788;28;20287;-67
2022/10/29 12:27:55;;;;;;;15.67;7.90;;;18.10;99.90;;;;;;5033896;28;20609;-67
2022/10/29 12:30:23;;;;;;;12.20;7.30;;;18.10;99.90;;;;;;5033982;28;20216;-68
2022/10/29 12:32:58;;;;;;;15.60;8.30;;;18.10;99.90;;;;;;5034026;28;20218;-68
2022/10/29 12:35:30;;;;;;;16.57;8.60;;;18.10;99.90;;;;;;5033679;28;20282;-67
2022/10/29 12:38:22;;;;;;;16.20;8.60;;;18.20;99.90;;;;;;5033914;28;20197;-68
2022/10/29 12:40:53;;;;;;;13.33;8.03;;;18.10;99.90;;;;;;5033842;28;20253;-68
2022/10/29 12:43:25;;;;;;;14.70;8.17;;;18.20;99.90;;;;;;5033617;28;20194;-68
2022/10/29 12:46:00;;;;;;;14.10;7.77;;;18.20;99.90;;;;;;5033603;28;20220;-67
2022/10/29 12:48:36;;;;;;;16.23;8.13;;;18.20;99.90;;;;;;5033159;28;20768;-67